首页
METAR-TAF:

METAR-TAF

机场 :

汶萊國際機場

文莱, 文莱

纬度: 04-56N, 经度: 114-56E, 海拔: 22米

当前天气观测

该预报发布于36分钟前的14:00 UTC
风速2节,风向东转东南
温度 25°C
湿度 94%
气压 1013 hPa
能見度: 7000
少量云层高于300英尺
少量云层高于1600英尺, 积雨云.
多云层高于14000英尺
雷暴, 小雨

METAR: WBSB 231400Z 12002KT 7000 -TSRA FEW003 FEW016CB BKN140 25/24 Q1013 TEMPO 22014KT 5000 SHRA TSRA

时间: 22:36 (14:36 UTC)

预报

该预报发布于3小时和36分钟前的11:00 UTC
预报有效从23日的 12点(UTC)到 24日的 18点(UTC)
风速3节,风向南转西南
能见度10公里或以上
散云层高于1500英尺
少量云层高于1600英尺, 积雨云.
短暂存在
从 23日的 12点(UTC)到 23日的 14点(UTC)
能見度: 7000
阵雨, 雷暴, 雨
成为
从 24日的 03点(UTC)到 24日的 05点(UTC)
风速10节,风向西北
散云层高于1600英尺
少量云层高于1700英尺, 积雨云.

TAF: WBSB 231100Z 2312/2418 20003KT 9999 SCT015 FEW016CB TEMPO 2312/2314 7000 SHRA TSRA BECMG 2403/2405 32010KT SCT016 FEW017CB

超过4000个机场的气象观测和天气预报(METAR&TAF报告)。

可查询的气象台以黄色和红色小点在地图上表示。

将鼠标移到小点上方,可查看气象台名称。

然后点击查看天气观测和预报。

如需切换地图:点击带黑十字的绿色按钮放大地图;点击带横线的绿色按钮缩小地图;或者点击绿色箭头查看邻近地区的地图。


METAR-TAF: